createdAt,value
2022-07-31T00:00:27.123Z,50.95
2022-07-31T00:02:54.311Z,50.86
2022-07-31T00:05:21.602Z,51.01
2022-07-31T00:07:49.014Z,50.84
2022-07-31T00:10:16.159Z,51.02
2022-07-31T00:12:43.488Z,51.92
2022-07-31T00:15:12.451Z,51.84
2022-07-31T00:17:42.042Z,51.87
2022-07-31T00:20:14.696Z,51.53
2022-07-31T00:22:43.531Z,51.55
2022-07-31T00:25:12.850Z,51.74
2022-07-31T00:27:41.411Z,52.01
2022-07-31T00:30:09.463Z,52.31
2022-07-31T00:32:36.357Z,52.12
2022-07-31T00:35:04.023Z,51.86
2022-07-31T00:37:31.024Z,51.92
2022-07-31T00:39:58.477Z,52.61
2022-07-31T00:42:26.421Z,52.69
2022-07-31T00:44:53.401Z,53.05
2022-07-31T00:47:25.551Z,53.13
2022-07-31T00:49:53.146Z,53.16
2022-07-31T00:52:20.950Z,53.35
2022-07-31T00:54:47.842Z,53.67
2022-07-31T00:57:15.368Z,53.58
2022-07-31T00:59:43.687Z,53.69
2022-07-31T01:02:11.111Z,53.52
2022-07-31T01:04:38.036Z,53.77
2022-07-31T01:07:09.245Z,53.63
2022-07-31T01:09:36.525Z,53.59
2022-07-31T01:12:09.818Z,53.72
2022-07-31T01:14:45.954Z,54.17
2022-07-31T01:17:15.367Z,54.91
2022-07-31T01:19:48.570Z,54.82
2022-07-31T01:22:42.683Z,55.03
2022-07-31T01:25:47.455Z,54.85
2022-07-31T01:28:59.045Z,54.82
2022-07-31T01:31:52.422Z,54.89
2022-07-31T01:34:42.539Z,55.27
2022-07-31T01:37:27.274Z,55.53
2022-07-31T01:40:08.486Z,55.68
2022-07-31T01:42:39.478Z,56.30
2022-07-31T01:45:10.780Z,56.35
2022-07-31T01:47:40.085Z,56.32
2022-07-31T01:50:09.176Z,56.27
2022-07-31T01:53:01.000Z,56.20
2022-07-31T01:55:30.845Z,56.13
2022-07-31T01:58:20.978Z,56.68
2022-07-31T02:00:50.978Z,56.45
2022-07-31T02:03:19.616Z,56.70
2022-07-31T02:06:07.145Z,57.17
2022-07-31T02:08:35.883Z,57.02
2022-07-31T02:11:03.688Z,57.26
2022-07-31T02:13:32.373Z,57.48
2022-07-31T02:16:01.051Z,58.02
2022-07-31T02:18:34.765Z,57.55
2022-07-31T02:21:02.091Z,57.64
2022-07-31T02:23:28.977Z,58.11
2022-07-31T02:25:56.843Z,58.23
2022-07-31T02:28:26.136Z,57.80
2022-07-31T02:30:54.303Z,57.53
2022-07-31T02:33:25.644Z,57.46
2022-07-31T02:35:57.483Z,57.28
2022-07-31T02:38:28.141Z,56.96
2022-07-31T02:41:01.998Z,57.20
2022-07-31T02:43:31.732Z,57.07
2022-07-31T02:45:59.955Z,57.20
2022-07-31T02:48:28.127Z,57.58
2022-07-31T02:50:56.154Z,57.59
2022-07-31T02:53:23.428Z,57.35
2022-07-31T02:55:52.185Z,57.06
2022-07-31T02:58:19.826Z,57.14
2022-07-31T03:00:46.984Z,57.92
2022-07-31T03:03:13.958Z,58.22
2022-07-31T03:05:40.839Z,58.53
2022-07-31T03:08:07.684Z,58.28
2022-07-31T03:10:34.694Z,58.81
2022-07-31T03:13:05.306Z,58.81
2022-07-31T03:15:34.418Z,59.47
2022-07-31T03:18:01.791Z,59.76
2022-07-31T03:20:39.750Z,59.84
2022-07-31T03:23:07.325Z,59.95
2022-07-31T03:25:34.374Z,59.74
2022-07-31T03:28:01.272Z,59.49
2022-07-31T03:30:28.403Z,59.39
2022-07-31T03:32:57.195Z,59.29
2022-07-31T03:35:25.258Z,59.46
2022-07-31T03:37:52.498Z,59.58
2022-07-31T03:40:19.813Z,59.48
2022-07-31T03:42:49.800Z,58.93
2022-07-31T03:45:17.834Z,58.81
2022-07-31T03:47:45.154Z,59.28
2022-07-31T03:50:14.003Z,59.18
2022-07-31T03:52:41.109Z,59.09
2022-07-31T03:55:08.965Z,59.22
2022-07-31T03:57:38.420Z,59.45
2022-07-31T04:00:09.742Z,59.26
2022-07-31T04:02:44.945Z,58.91
2022-07-31T04:05:12.056Z,59.15
2022-07-31T04:07:38.956Z,59.33
2022-07-31T04:10:06.767Z,59.20
2022-07-31T04:12:33.787Z,59.08
2022-07-31T04:15:00.694Z,59.15
2022-07-31T04:17:27.552Z,58.96
2022-07-31T04:19:58.048Z,59.10
2022-07-31T04:22:25.705Z,59.11
2022-07-31T04:24:52.659Z,59.04
2022-07-31T04:27:19.562Z,59.02
2022-07-31T04:29:46.942Z,59.16
2022-07-31T04:32:13.882Z,59.08
2022-07-31T04:34:42.188Z,58.91
2022-07-31T04:37:09.061Z,59.02
2022-07-31T04:39:36.926Z,59.03
2022-07-31T04:42:05.017Z,59.33
2022-07-31T04:44:34.092Z,59.66
2022-07-31T04:47:04.201Z,59.29
2022-07-31T04:49:33.191Z,59.29
2022-07-31T04:52:01.679Z,59.42
2022-07-31T04:54:29.837Z,58.93
2022-07-31T04:56:56.879Z,58.96
2022-07-31T04:59:24.436Z,58.56
2022-07-31T05:02:11.325Z,58.44
2022-07-31T05:04:39.355Z,58.88
2022-07-31T05:07:06.223Z,59.20
2022-07-31T05:09:36.306Z,59.26
2022-07-31T05:12:04.785Z,59.26
2022-07-31T05:14:31.907Z,58.92
2022-07-31T05:16:58.861Z,58.54
2022-07-31T05:19:29.750Z,58.66
2022-07-31T05:22:02.434Z,58.32
2022-07-31T05:24:33.313Z,58.48
2022-07-31T05:27:03.076Z,58.44
2022-07-31T05:29:31.086Z,58.36
2022-07-31T05:31:59.697Z,58.46
2022-07-31T05:34:31.246Z,58.27
2022-07-31T05:37:01.656Z,57.82
2022-07-31T05:39:30.250Z,57.87
2022-07-31T05:41:57.528Z,58.04
2022-07-31T05:44:24.627Z,58.12
2022-07-31T05:49:19.902Z,58.45
2022-07-31T05:51:47.247Z,58.28
2022-07-31T05:54:14.489Z,57.89
2022-07-31T05:56:41.591Z,57.49
2022-07-31T05:59:09.630Z,57.70
2022-07-31T06:01:37.305Z,58.08
2022-07-31T06:04:04.678Z,58.07
2022-07-31T06:06:31.675Z,58.03
2022-07-31T06:09:03.797Z,57.32
2022-07-31T06:11:31.899Z,56.60
2022-07-31T06:13:58.953Z,56.28
2022-07-31T06:16:25.850Z,55.89
2022-07-31T06:18:52.789Z,55.83
2022-07-31T06:23:45.577Z,55.11
2022-07-31T06:26:12.704Z,54.53
2022-07-31T06:28:47.977Z,54.52
2022-07-31T06:31:21.976Z,54.80
2022-07-31T06:33:50.135Z,54.62
2022-07-31T06:36:19.749Z,54.53
2022-07-31T06:38:47.269Z,54.54
2022-07-31T06:41:32.716Z,54.65
2022-07-31T06:43:59.667Z,54.10
2022-07-31T06:46:26.577Z,54.15
2022-07-31T06:48:53.475Z,53.70
2022-07-31T06:51:30.839Z,53.78
2022-07-31T06:54:00.267Z,54.37
2022-07-31T06:56:28.077Z,54.39
2022-07-31T06:58:55.274Z,54.62
2022-07-31T07:01:22.294Z,54.57
2022-07-31T07:03:49.307Z,54.60
2022-07-31T07:06:16.526Z,54.53
2022-07-31T07:08:43.461Z,54.22
2022-07-31T07:11:12.425Z,53.86
2022-07-31T07:13:45.299Z,54.18
2022-07-31T07:16:14.732Z,53.69
2022-07-31T07:18:43.119Z,53.17
2022-07-31T07:21:10.745Z,53.01
2022-07-31T07:23:37.855Z,52.70
2022-07-31T07:26:05.811Z,52.68
2022-07-31T07:28:34.067Z,52.49
2022-07-31T07:31:01.462Z,52.76
2022-07-31T07:33:40.952Z,52.80
2022-07-31T07:36:23.002Z,52.90
2022-07-31T07:38:55.628Z,52.86
2022-07-31T07:41:25.123Z,53.20
2022-07-31T07:43:53.018Z,52.80
2022-07-31T07:46:22.739Z,52.36
2022-07-31T07:48:50.919Z,51.74
2022-07-31T07:51:19.441Z,51.26
2022-07-31T07:53:46.379Z,50.85
2022-07-31T07:56:13.182Z,50.20
2022-07-31T07:58:40.819Z,48.60
2022-07-31T08:01:08.071Z,47.77
2022-07-31T08:03:50.247Z,46.83
2022-07-31T08:06:21.452Z,47.09
2022-07-31T08:08:48.399Z,46.69
2022-07-31T08:11:17.052Z,46.08
2022-07-31T08:13:50.113Z,45.61
2022-07-31T08:16:19.035Z,45.42
2022-07-31T08:18:46.135Z,42.81
2022-07-31T08:21:13.360Z,42.55
2022-07-31T08:23:40.535Z,42.73
2022-07-31T08:26:10.021Z,43.35
2022-07-31T08:28:38.343Z,40.56
2022-07-31T08:31:05.773Z,40.48
2022-07-31T08:33:35.603Z,40.79
2022-07-31T08:36:04.558Z,40.13
2022-07-31T08:38:32.182Z,39.92
2022-07-31T08:40:59.687Z,39.26
2022-07-31T08:44:00.503Z,38.81
2022-07-31T08:46:16.578Z,37.34
2022-07-31T08:48:45.920Z,36.23
2022-07-31T08:51:15.593Z,36.84
2022-07-31T08:53:44.679Z,37.92
2022-07-31T08:56:12.819Z,35.24
2022-07-31T08:58:40.227Z,35.25
2022-07-31T09:01:12.291Z,36.52
2022-07-31T09:03:39.337Z,36.75
2022-07-31T09:06:06.976Z,35.74
2022-07-31T09:08:36.088Z,35.17
2022-07-31T09:11:05.985Z,37.69
2022-07-31T09:13:34.952Z,38.09
2022-07-31T09:16:03.490Z,34.12
2022-07-31T09:18:31.646Z,35.74
2022-07-31T09:21:02.236Z,37.88
2022-07-31T09:23:32.200Z,35.99
2022-07-31T09:26:05.793Z,36.87
2022-07-31T09:28:43.926Z,37.36
2022-07-31T09:31:13.908Z,35.38
2022-07-31T09:33:45.948Z,34.26
2022-07-31T09:36:14.997Z,34.21
2022-07-31T09:38:44.381Z,35.88
2022-07-31T09:41:55.469Z,31.61
2022-07-31T09:44:09.885Z,33.24
2022-07-31T09:46:46.884Z,34.19
2022-07-31T09:49:14.651Z,32.06
2022-07-31T09:51:49.478Z,30.65
2022-07-31T09:54:31.338Z,31.22
2022-07-31T09:57:09.834Z,31.91
2022-07-31T09:59:36.666Z,32.79
2022-07-31T10:02:08.810Z,34.58
2022-07-31T10:04:41.407Z,30.47
2022-07-31T10:07:08.812Z,30.37
2022-07-31T10:09:57.876Z,31.70
2022-07-31T10:12:30.809Z,31.65
2022-07-31T10:15:09.298Z,31.39
2022-07-31T10:17:41.041Z,32.13
2022-07-31T10:20:13.517Z,29.36
2022-07-31T10:22:46.468Z,31.04
2022-07-31T10:25:29.535Z,31.67
2022-07-31T10:27:57.368Z,30.87
2022-07-31T10:30:28.330Z,31.23
2022-07-31T10:32:58.652Z,33.17
2022-07-31T10:36:10.765Z,33.15
2022-07-31T10:38:54.838Z,34.55
2022-07-31T10:41:37.861Z,31.55
2022-07-31T10:44:22.568Z,32.63
2022-07-31T10:46:50.409Z,34.09
2022-07-31T10:49:17.462Z,31.65
2022-07-31T10:51:51.813Z,31.66
2022-07-31T10:54:18.721Z,31.52
2022-07-31T10:56:47.581Z,31.33
2022-07-31T10:59:14.694Z,30.02
2022-07-31T11:01:55.018Z,28.50
2022-07-31T11:04:32.287Z,29.26
2022-07-31T11:07:00.092Z,27.36
2022-07-31T11:09:29.591Z,27.92
2022-07-31T11:11:56.647Z,28.48
2022-07-31T11:14:40.690Z,28.80
2022-07-31T11:17:07.953Z,29.02
2022-07-31T11:19:43.891Z,27.58
2022-07-31T11:22:31.968Z,27.46
2022-07-31T11:25:00.743Z,27.63
2022-07-31T11:27:34.444Z,28.06
2022-07-31T11:30:13.498Z,29.77
2022-07-31T11:32:47.665Z,27.46
2022-07-31T11:35:29.749Z,27.45
2022-07-31T11:37:59.100Z,26.44
2022-07-31T11:40:28.225Z,25.11
2022-07-31T11:43:24.748Z,25.31
2022-07-31T11:45:55.087Z,24.76
2022-07-31T11:48:27.798Z,26.27
2022-07-31T11:50:54.975Z,23.90
2022-07-31T11:53:21.931Z,26.51
2022-07-31T11:55:54.033Z,24.43
2022-07-31T11:58:22.689Z,24.19
2022-07-31T12:01:02.753Z,23.76
2022-07-31T12:03:37.032Z,26.94
2022-07-31T12:06:06.872Z,28.79
2022-07-31T12:08:37.746Z,26.40
2022-07-31T12:11:08.881Z,26.27
2022-07-31T12:13:38.706Z,23.42
2022-07-31T12:16:11.309Z,24.43
2022-07-31T12:19:02.161Z,23.42
2022-07-31T12:21:38.664Z,23.12
2022-07-31T12:24:15.120Z,22.50
2022-07-31T12:26:59.276Z,21.87
2022-07-31T12:29:39.190Z,21.64
2022-07-31T12:32:07.966Z,21.37
2022-07-31T12:34:42.447Z,21.77
2022-07-31T12:37:22.410Z,21.64
2022-07-31T12:39:59.725Z,21.91
2022-07-31T12:42:40.709Z,20.97
2022-07-31T12:45:18.474Z,20.42
2022-07-31T12:47:51.350Z,20.08
2022-07-31T12:50:28.141Z,19.97
2022-07-31T12:53:00.502Z,21.07
2022-07-31T12:55:29.507Z,21.32
2022-07-31T12:57:57.224Z,20.84
2022-07-31T13:00:26.917Z,20.27
2022-07-31T13:02:58.325Z,19.99
2022-07-31T13:05:26.181Z,20.50
2022-07-31T13:07:53.907Z,19.92
2022-07-31T13:10:25.041Z,19.67
2022-07-31T13:12:58.690Z,19.91
2022-07-31T13:15:32.154Z,19.99
2022-07-31T13:18:05.089Z,20.27
2022-07-31T13:20:32.711Z,20.04
2022-07-31T13:22:59.954Z,19.91
2022-07-31T13:25:30.311Z,19.50
2022-07-31T13:27:59.189Z,19.50
2022-07-31T13:30:27.798Z,19.53
2022-07-31T13:32:54.841Z,20.08
2022-07-31T13:35:28.283Z,19.59
2022-07-31T13:37:56.329Z,18.87
2022-07-31T13:40:42.278Z,18.97
2022-07-31T13:43:09.759Z,18.74
2022-07-31T13:45:37.187Z,19.19
2022-07-31T13:48:09.559Z,19.59
2022-07-31T13:50:39.605Z,19.53
2022-07-31T13:53:07.044Z,20.57
2022-07-31T13:55:34.378Z,20.18
2022-07-31T13:58:01.712Z,19.94
2022-07-31T14:00:30.511Z,21.24
2022-07-31T14:02:58.384Z,21.81
2022-07-31T14:05:28.231Z,21.83
2022-07-31T14:07:56.216Z,21.74
2022-07-31T14:10:48.517Z,21.34
2022-07-31T14:13:19.036Z,23.30
2022-07-31T14:15:47.204Z,22.92
2022-07-31T14:20:07.183Z,22.53
2022-07-31T14:22:34.091Z,21.46
2022-07-31T14:25:01.190Z,22.30
2022-07-31T14:27:28.172Z,21.96
2022-07-31T14:29:55.198Z,22.61
2022-07-31T14:32:22.566Z,23.22
2022-07-31T14:34:50.559Z,23.56
2022-07-31T14:37:17.578Z,23.91
2022-07-31T14:39:44.736Z,23.93
2022-07-31T14:42:12.423Z,23.58
2022-07-31T14:44:42.356Z,22.69
2022-07-31T14:47:11.445Z,22.24
2022-07-31T14:50:07.810Z,22.69
2022-07-31T14:52:28.861Z,22.33
2022-07-31T14:54:58.635Z,22.84
2022-07-31T14:57:26.449Z,23.06
2022-07-31T14:59:53.425Z,23.49
2022-07-31T15:02:22.719Z,24.21
2022-07-31T15:04:52.026Z,25.09
2022-07-31T15:07:43.824Z,25.36
2022-07-31T15:10:11.113Z,24.47
2022-07-31T15:12:38.296Z,23.93
2022-07-31T15:15:07.539Z,24.88
2022-07-31T15:17:37.264Z,25.64
2022-07-31T15:20:05.556Z,26.60
2022-07-31T15:22:32.588Z,27.47
2022-07-31T15:24:59.644Z,27.52
2022-07-31T15:27:27.035Z,27.97
2022-07-31T15:30:04.405Z,27.79
2022-07-31T15:32:39.010Z,26.39
2022-07-31T15:35:11.317Z,25.45
2022-07-31T15:37:41.216Z,24.84
2022-07-31T15:40:15.123Z,25.15
2022-07-31T15:42:44.998Z,26.38
2022-07-31T15:45:18.368Z,27.03
2022-07-31T15:47:47.239Z,27.09
2022-07-31T15:50:17.336Z,27.28
2022-07-31T15:52:44.216Z,27.81
2022-07-31T15:55:11.718Z,27.79
2022-07-31T15:57:39.181Z,28.05
2022-07-31T16:00:13.315Z,28.33
2022-07-31T16:02:42.706Z,28.56
2022-07-31T16:05:21.526Z,28.82
2022-07-31T16:08:30.838Z,28.89
2022-07-31T16:10:45.130Z,29.12
2022-07-31T16:13:11.923Z,29.42
2022-07-31T16:15:38.797Z,29.26
2022-07-31T16:18:05.910Z,29.15
2022-07-31T16:20:32.962Z,29.52
2022-07-31T16:23:01.740Z,29.32
2022-07-31T16:25:31.990Z,29.62
2022-07-31T16:28:06.083Z,29.32
2022-07-31T16:30:33.161Z,29.08
2022-07-31T16:33:00.787Z,29.16
2022-07-31T16:35:27.860Z,29.27
2022-07-31T16:37:55.288Z,29.77
2022-07-31T16:40:31.013Z,29.90
2022-07-31T16:43:51.095Z,29.88
2022-07-31T16:45:55.731Z,29.80
2022-07-31T16:48:23.622Z,29.61
2022-07-31T16:50:54.048Z,29.25
2022-07-31T16:54:13.070Z,29.62
2022-07-31T16:56:42.282Z,29.96
2022-07-31T16:59:09.878Z,29.30
2022-07-31T17:01:56.943Z,29.24
2022-07-31T17:04:25.090Z,29.52
2022-07-31T17:06:52.130Z,29.32
2022-07-31T17:09:20.172Z,29.37
2022-07-31T17:11:56.039Z,29.47
2022-07-31T17:14:26.452Z,29.51
2022-07-31T17:16:55.295Z,29.52
2022-07-31T17:19:35.885Z,30.17
2022-07-31T17:22:04.674Z,30.13
2022-07-31T17:24:31.819Z,30.13
2022-07-31T17:26:59.689Z,29.96
2022-07-31T17:29:27.572Z,29.97
2022-07-31T17:31:54.457Z,30.32
2022-07-31T17:34:21.358Z,30.61
2022-07-31T17:36:50.290Z,30.37
2022-07-31T17:39:17.604Z,30.73
2022-07-31T17:41:44.978Z,30.79
2022-07-31T17:44:12.119Z,30.87
2022-07-31T17:46:43.889Z,30.69
2022-07-31T17:49:20.470Z,30.80
2022-07-31T17:51:58.665Z,30.90
2022-07-31T17:54:31.766Z,31.03
2022-07-31T17:57:05.028Z,30.98
2022-07-31T17:59:33.035Z,30.96
2022-07-31T18:02:00.693Z,30.48
2022-07-31T18:04:31.330Z,31.08
2022-07-31T18:07:00.394Z,30.49
2022-07-31T18:09:28.676Z,30.65
2022-07-31T18:11:57.310Z,30.11
2022-07-31T18:14:25.218Z,30.06
2022-07-31T18:16:53.580Z,29.65
2022-07-31T18:19:23.929Z,30.11
2022-07-31T18:21:52.358Z,29.88
2022-07-31T18:24:21.075Z,29.79
2022-07-31T18:26:49.418Z,29.66
2022-07-31T18:29:18.030Z,29.95
2022-07-31T18:31:45.600Z,30.12
2022-07-31T18:34:13.377Z,30.21
2022-07-31T18:36:41.028Z,29.81
2022-07-31T18:39:08.460Z,29.92
2022-07-31T18:41:35.481Z,30.11
2022-07-31T18:44:02.358Z,30.52
2022-07-31T18:46:32.049Z,30.46
2022-07-31T18:49:00.427Z,30.69
2022-07-31T18:51:29.459Z,30.65
2022-07-31T18:53:56.843Z,30.70
2022-07-31T18:56:25.215Z,30.78
2022-07-31T18:58:54.453Z,30.82
2022-07-31T19:01:22.626Z,31.05
2022-07-31T19:03:50.358Z,30.92
2022-07-31T19:06:18.373Z,31.08
2022-07-31T19:08:46.464Z,30.92
2022-07-31T19:11:13.652Z,30.99
2022-07-31T19:13:40.716Z,31.33
2022-07-31T19:16:10.168Z,31.27
2022-07-31T19:18:40.180Z,31.48
2022-07-31T19:21:22.687Z,31.75
2022-07-31T19:23:55.782Z,32.88
2022-07-31T19:26:22.835Z,33.83
2022-07-31T19:28:49.814Z,34.60
2022-07-31T19:31:16.908Z,35.24
2022-07-31T19:33:43.936Z,36.20
2022-07-31T19:36:13.420Z,36.00
2022-07-31T19:38:44.040Z,36.26
2022-07-31T19:41:12.475Z,35.98
2022-07-31T19:43:39.377Z,35.55
2022-07-31T19:46:11.477Z,35.86
2022-07-31T19:48:46.273Z,36.32
2022-07-31T19:51:15.891Z,36.64
2022-07-31T19:53:44.615Z,37.02
2022-07-31T19:56:19.712Z,37.22
2022-07-31T19:58:48.751Z,37.56
2022-07-31T20:01:19.102Z,38.08
2022-07-31T20:03:46.692Z,38.58
2022-07-31T20:06:13.880Z,38.30
2022-07-31T20:08:42.561Z,38.68
2022-07-31T20:11:10.462Z,38.98
2022-07-31T20:13:38.604Z,39.28
2022-07-31T20:16:07.648Z,39.32
2022-07-31T20:18:34.780Z,39.83
2022-07-31T20:21:08.596Z,39.90
2022-07-31T20:23:41.728Z,39.97
2022-07-31T20:26:12.481Z,39.87
2022-07-31T20:28:43.994Z,40.36
2022-07-31T20:31:15.777Z,40.17
2022-07-31T20:33:56.525Z,40.18
2022-07-31T20:36:24.381Z,40.54
2022-07-31T20:38:51.408Z,40.56
2022-07-31T20:41:18.753Z,40.86
2022-07-31T20:43:46.895Z,40.88
2022-07-31T20:46:16.850Z,41.39
2022-07-31T20:48:45.272Z,41.23
2022-07-31T20:51:20.427Z,41.20
2022-07-31T20:53:49.315Z,41.09
2022-07-31T20:56:17.446Z,41.45
2022-07-31T20:58:51.383Z,41.53
2022-07-31T21:01:23.344Z,41.89
2022-07-31T21:03:51.537Z,42.16
2022-07-31T21:06:20.902Z,42.09
2022-07-31T21:08:49.196Z,42.69
2022-07-31T21:11:16.390Z,43.03
2022-07-31T21:13:45.858Z,43.18
2022-07-31T21:16:13.068Z,43.03
2022-07-31T21:18:43.303Z,43.30
2022-07-31T21:21:11.390Z,42.99
2022-07-31T21:23:40.035Z,43.39
2022-07-31T21:26:11.696Z,43.26
2022-07-31T21:28:39.833Z,43.42
2022-07-31T21:31:07.956Z,43.12
2022-07-31T21:33:36.995Z,43.69
2022-07-31T21:36:06.104Z,44.04
2022-07-31T21:38:35.450Z,44.12
2022-07-31T21:41:03.148Z,43.89
2022-07-31T21:43:35.269Z,44.05
2022-07-31T21:46:22.479Z,44.44
2022-07-31T21:48:52.493Z,44.73
2022-07-31T21:51:20.265Z,44.96
2022-07-31T21:53:48.072Z,45.00
2022-07-31T21:56:16.136Z,45.06
2022-07-31T21:58:44.632Z,45.62
2022-07-31T22:01:13.709Z,45.98
2022-07-31T22:03:43.892Z,45.59
2022-07-31T22:06:29.339Z,45.60
2022-07-31T22:08:56.334Z,45.54
2022-07-31T22:11:23.733Z,45.44
2022-07-31T22:13:50.678Z,46.02
2022-07-31T22:16:17.566Z,46.29
2022-07-31T22:18:44.783Z,46.68
2022-07-31T22:21:12.082Z,46.39
2022-07-31T22:23:39.368Z,46.69
2022-07-31T22:26:06.605Z,46.86
2022-07-31T22:28:34.445Z,47.19
2022-07-31T22:31:02.045Z,47.04
2022-07-31T22:33:28.986Z,47.03
2022-07-31T22:36:02.517Z,46.99
2022-07-31T22:38:31.431Z,48.02
2022-07-31T22:41:02.260Z,47.82
2022-07-31T22:44:12.551Z,47.67
2022-07-31T22:46:17.938Z,47.70
2022-07-31T22:48:46.275Z,47.50
2022-07-31T22:51:14.665Z,47.76
2022-07-31T22:53:48.683Z,47.83
2022-07-31T22:56:16.871Z,48.07
2022-07-31T22:58:44.865Z,48.31
2022-07-31T23:01:11.740Z,48.59
2022-07-31T23:03:38.615Z,48.67
2022-07-31T23:06:31.249Z,48.65
2022-07-31T23:08:55.009Z,48.53
2022-07-31T23:11:23.467Z,48.73
2022-07-31T23:13:51.733Z,48.63
2022-07-31T23:16:20.143Z,48.69
2022-07-31T23:18:47.439Z,49.11
2022-07-31T23:21:14.310Z,49.63
2022-07-31T23:23:41.226Z,49.50
2022-07-31T23:26:21.111Z,49.79
2022-07-31T23:28:48.993Z,50.12
2022-07-31T23:31:17.403Z,50.47
2022-07-31T23:33:45.763Z,50.42
2022-07-31T23:36:14.146Z,50.14
2022-07-31T23:38:42.100Z,50.44
2022-07-31T23:41:09.407Z,50.91
2022-07-31T23:43:36.610Z,51.83
2022-07-31T23:46:05.066Z,52.13
2022-07-31T23:48:34.243Z,52.21
2022-07-31T23:51:01.138Z,52.14
2022-07-31T23:53:27.985Z,52.20
2022-07-31T23:55:54.872Z,52.45
2022-07-31T23:58:21.706Z,52.28
